Greenville Downtown Airport Greenville US
ICAO: KGMU
IATA: GMU
Category: Medium
Scheduled Services: No

Elevation: 1048 ft
TransAlt. 18000 ft.

Airport Communications:
GREER APP/DEP:118.8
ASOS:127.075
CTAF:119.9
GND:121.25
TWR:119.9
UNICOM:122.95

KGMU Zoom In..

If Map Doesn't Load, Click Here

Runways:

(A) RW 01 length 5393 ft width 100 ft
ILS 109.70 / hdg 6

(B) RW 10 length 4000 ft width 80 ft
---- / hdg 96

(C) RW 19 length 5393 ft width 100 ft
---- / hdg 186

(D) RW 28 length 4000 ft width 80 ft
---- / hdg 276

Location; KGMU
Day. 24 / Time. 05.53 Zulu
* Altimeter: 30.16
* Temperature: 21° c. 69.8°f.
* Wind from: 020° Speed 05 kn.
Dewpoint: 20° c.
Visibility: 10 Statute Miles.
Clouds: Clear (automated report).

KGMU 240553Z AUTO 02005KT 10SM CLR 21/20 A3016 RMK AO2 SLP201 T02110200 10272 20211 51009


Wind From 020°
Speed 05 kn.

 
 
jpsmedia.com for Web Design worldairports.se 2018   terms of use